createdAt,value
2022-09-04T00:01:55.214Z,53.23
2022-09-04T00:04:07.920Z,53.05
2022-09-04T00:06:17.842Z,53.52
2022-09-04T00:08:31.637Z,53.17
2022-09-04T00:10:38.613Z,53.42
2022-09-04T00:12:49.001Z,53.20
2022-09-04T00:15:18.952Z,53.90
2022-09-04T00:17:33.839Z,53.46
2022-09-04T00:19:48.147Z,53.45
2022-09-04T00:21:58.589Z,53.64
2022-09-04T00:24:05.225Z,53.52
2022-09-04T00:26:12.905Z,54.08
2022-09-04T00:28:27.377Z,53.95
2022-09-04T00:30:29.175Z,53.78
2022-09-04T00:32:51.906Z,54.45
2022-09-04T00:35:17.572Z,54.39
2022-09-04T00:37:23.218Z,54.18
2022-09-04T00:39:41.381Z,54.54
2022-09-04T00:42:09.900Z,54.83
2022-09-04T00:44:35.371Z,54.51
2022-09-04T00:46:44.573Z,54.04
2022-09-04T00:49:14.414Z,54.87
2022-09-04T00:51:19.565Z,54.22
2022-09-04T00:53:51.175Z,54.91
2022-09-04T00:56:15.435Z,54.66
2022-09-04T00:58:52.684Z,54.71
2022-09-04T01:01:02.256Z,54.44
2022-09-04T01:03:35.379Z,55.00
2022-09-04T01:06:37.745Z,55.12
2022-09-04T01:09:24.949Z,55.13
2022-09-04T01:11:33.253Z,55.13
2022-09-04T01:13:42.293Z,55.07
2022-09-04T01:15:59.424Z,55.07
2022-09-04T01:18:30.788Z,55.39
2022-09-04T01:20:51.108Z,55.37
2022-09-04T01:23:13.013Z,55.71
2022-09-04T01:25:20.840Z,56.01
2022-09-04T01:27:39.726Z,56.02
2022-09-04T01:30:05.826Z,56.52
2022-09-04T01:32:26.041Z,56.14
2022-09-04T01:35:05.576Z,56.93
2022-09-04T01:37:30.662Z,56.35
2022-09-04T01:39:36.527Z,56.21
2022-09-04T01:41:49.074Z,56.87
2022-09-04T01:43:52.028Z,56.40
2022-09-04T01:46:05.058Z,56.19
2022-09-04T01:48:08.253Z,56.31
2022-09-04T01:50:27.891Z,56.13
2022-09-04T01:52:59.128Z,56.67
2022-09-04T01:55:47.640Z,56.69
2022-09-04T01:58:00.601Z,56.80
2022-09-04T02:00:13.768Z,56.53
2022-09-04T02:02:34.518Z,56.86
2022-09-04T02:04:59.762Z,57.01
2022-09-04T02:07:29.152Z,57.28
2022-09-04T02:09:44.534Z,57.15
2022-09-04T02:11:57.171Z,57.12
2022-09-04T02:14:22.301Z,57.45
2022-09-04T02:16:33.679Z,57.15
2022-09-04T02:18:50.361Z,57.66
2022-09-04T02:21:08.051Z,57.91
2022-09-04T02:23:22.005Z,57.11
2022-09-04T02:25:48.025Z,57.72
2022-09-04T02:27:56.221Z,57.51
2022-09-04T02:30:15.896Z,57.91
2022-09-04T02:32:27.150Z,57.46
2022-09-04T02:34:53.764Z,57.79
2022-09-04T02:37:19.583Z,57.84
2022-09-04T02:39:32.598Z,57.96
2022-09-04T02:41:58.182Z,57.99
2022-09-04T02:44:18.709Z,57.96
2022-09-04T02:46:43.285Z,58.13
2022-09-04T02:48:47.935Z,57.79
2022-09-04T02:51:13.975Z,58.06
2022-09-04T02:53:40.108Z,58.18
2022-09-04T02:56:19.111Z,58.35
2022-09-04T02:58:52.827Z,58.32
2022-09-04T03:01:30.929Z,58.38
2022-09-04T03:04:21.250Z,58.19
2022-09-04T03:06:52.265Z,58.38
2022-09-04T03:09:06.242Z,58.00
2022-09-04T03:11:19.314Z,58.56
2022-09-04T03:13:32.353Z,58.42
2022-09-04T03:15:56.666Z,58.82
2022-09-04T03:18:16.817Z,58.43
2022-09-04T03:20:25.244Z,58.56
2022-09-04T03:22:36.334Z,58.18
2022-09-04T03:24:49.963Z,58.77
2022-09-04T03:26:59.909Z,58.51
2022-09-04T03:29:25.275Z,58.55
2022-09-04T03:31:51.619Z,58.54
2022-09-04T03:34:12.166Z,58.82
2022-09-04T03:36:34.755Z,58.88
2022-09-04T03:39:04.556Z,58.51
2022-09-04T03:41:18.144Z,58.93
2022-09-04T03:43:31.887Z,58.54
2022-09-04T03:46:07.445Z,58.47
2022-09-04T03:48:30.079Z,58.31
2022-09-04T03:51:10.092Z,59.03
2022-09-04T03:53:36.424Z,58.76
2022-09-04T03:56:15.234Z,59.02
2022-09-04T03:58:43.696Z,58.70
2022-09-04T04:01:06.482Z,58.98
2022-09-04T04:03:55.899Z,59.23
2022-09-04T04:06:16.939Z,58.79
2022-09-04T04:08:46.662Z,58.77
2022-09-04T04:11:24.188Z,58.67
2022-09-04T04:13:47.093Z,58.97
2022-09-04T04:16:00.132Z,58.42
2022-09-04T04:18:17.048Z,58.60
2022-09-04T04:20:36.692Z,58.90
2022-09-04T04:22:56.522Z,58.61
2022-09-04T04:25:25.342Z,58.33
2022-09-04T04:27:46.182Z,58.46
2022-09-04T04:30:05.170Z,58.27
2022-09-04T04:32:20.762Z,58.30
2022-09-04T04:34:34.652Z,58.23
2022-09-04T04:36:48.412Z,58.10
2022-09-04T04:39:07.726Z,58.03
2022-09-04T04:42:05.596Z,58.31
2022-09-04T04:44:16.233Z,58.24
2022-09-04T04:46:55.481Z,58.29
2022-09-04T04:49:28.531Z,58.31
2022-09-04T04:51:47.073Z,58.27
2022-09-04T04:54:28.710Z,58.30
2022-09-04T04:57:09.047Z,58.66
2022-09-04T04:59:31.100Z,58.56
2022-09-04T05:01:50.787Z,58.36
2022-09-04T05:04:34.098Z,57.98
2022-09-04T05:06:47.744Z,57.46
2022-09-04T05:09:09.208Z,57.08
2022-09-04T05:11:26.602Z,57.20
2022-09-04T05:13:53.681Z,56.97
2022-09-04T05:16:18.108Z,57.27
2022-09-04T05:18:42.734Z,57.05
2022-09-04T05:20:53.954Z,57.02
2022-09-04T05:23:13.731Z,56.69
2022-09-04T05:25:47.260Z,56.62
2022-09-04T05:28:25.405Z,56.83
2022-09-04T05:30:38.087Z,56.81
2022-09-04T05:32:53.697Z,56.87
2022-09-04T05:35:15.650Z,57.09
2022-09-04T05:37:27.771Z,57.15
2022-09-04T05:39:41.450Z,57.13
2022-09-04T05:42:06.789Z,57.19
2022-09-04T05:44:22.378Z,57.51
2022-09-04T05:46:36.174Z,57.66
2022-09-04T05:49:18.006Z,57.56
2022-09-04T05:51:46.984Z,57.77
2022-09-04T05:54:14.440Z,57.91
2022-09-04T05:56:47.287Z,57.74
2022-09-04T05:59:01.347Z,57.58
2022-09-04T06:01:23.610Z,57.90
2022-09-04T06:03:44.374Z,57.87
2022-09-04T06:06:07.573Z,58.29
2022-09-04T06:08:43.311Z,58.32
2022-09-04T06:10:50.001Z,58.02
2022-09-04T06:13:29.061Z,58.98
2022-09-04T06:15:44.250Z,58.63
2022-09-04T06:18:03.828Z,59.37
2022-09-04T06:20:16.354Z,60.27
2022-09-04T06:22:48.593Z,60.92
2022-09-04T06:25:15.634Z,60.99
2022-09-04T06:27:51.462Z,60.93
2022-09-04T06:30:09.373Z,60.86
2022-09-04T06:32:34.328Z,61.17
2022-09-04T06:35:00.801Z,61.01
2022-09-04T06:37:09.330Z,60.76
2022-09-04T06:39:26.066Z,60.59
2022-09-04T06:41:46.998Z,60.54
2022-09-04T06:44:13.438Z,59.91
2022-09-04T06:46:24.973Z,59.82
2022-09-04T06:48:42.134Z,59.45
2022-09-04T06:50:56.805Z,59.55
2022-09-04T06:53:21.497Z,59.18
2022-09-04T06:55:30.851Z,58.43
2022-09-04T06:57:46.783Z,58.34
2022-09-04T07:00:10.110Z,57.91
2022-09-04T07:02:33.377Z,57.96
2022-09-04T07:04:44.629Z,57.56
2022-09-04T07:07:18.606Z,57.79
2022-09-04T07:09:27.793Z,57.49
2022-09-04T07:11:44.597Z,57.38
2022-09-04T07:13:56.190Z,57.25
2022-09-04T07:15:57.676Z,56.85
2022-09-04T07:18:26.486Z,56.73
2022-09-04T07:20:56.343Z,56.51
2022-09-04T07:23:32.203Z,56.53
2022-09-04T07:25:43.948Z,56.31
2022-09-04T07:27:55.753Z,56.39
2022-09-04T07:30:05.175Z,56.02
2022-09-04T07:32:22.920Z,55.80
2022-09-04T07:34:46.801Z,55.85
2022-09-04T07:36:55.698Z,55.78
2022-09-04T07:39:11.835Z,55.71
2022-09-04T07:41:25.659Z,55.89
2022-09-04T07:43:42.600Z,55.74
2022-09-04T07:45:57.841Z,55.33
2022-09-04T07:48:16.959Z,55.38
2022-09-04T07:50:22.259Z,55.45
2022-09-04T07:52:44.638Z,55.19
2022-09-04T07:55:07.345Z,55.38
2022-09-04T07:57:26.410Z,55.06
2022-09-04T07:59:47.256Z,54.70
2022-09-04T08:02:04.131Z,54.08
2022-09-04T08:04:11.610Z,54.31
2022-09-04T08:06:35.597Z,53.88
2022-09-04T08:08:46.248Z,53.38
2022-09-04T08:11:14.535Z,53.14
2022-09-04T08:13:27.675Z,53.31
2022-09-04T08:15:46.156Z,53.31
2022-09-04T08:18:12.855Z,52.58
2022-09-04T08:20:45.264Z,52.41
2022-09-04T08:23:02.087Z,52.45
2022-09-04T08:25:16.983Z,52.22
2022-09-04T08:27:57.015Z,52.78
2022-09-04T08:30:06.326Z,52.48
2022-09-04T08:32:16.577Z,52.48
2022-09-04T08:34:57.779Z,52.61
2022-09-04T08:37:20.913Z,52.84
2022-09-04T08:39:34.642Z,52.19
2022-09-04T08:41:51.553Z,52.36
2022-09-04T08:44:28.717Z,52.32
2022-09-04T08:46:52.899Z,52.22
2022-09-04T08:49:11.746Z,52.47
2022-09-04T08:51:47.470Z,52.63
2022-09-04T08:54:19.175Z,52.79
2022-09-04T08:56:56.737Z,52.41
2022-09-04T08:59:29.390Z,52.29
2022-09-04T09:01:51.412Z,52.24
2022-09-04T09:04:43.984Z,52.55
2022-09-04T09:07:13.685Z,51.90
2022-09-04T09:09:21.163Z,51.80
2022-09-04T09:11:41.496Z,51.66
2022-09-04T09:14:07.412Z,51.64
2022-09-04T09:16:42.947Z,51.51
2022-09-04T09:19:06.296Z,51.35
2022-09-04T09:21:31.118Z,51.35
2022-09-04T09:23:54.961Z,50.53
2022-09-04T09:26:20.184Z,50.61
2022-09-04T09:28:58.830Z,50.26
2022-09-04T09:31:28.801Z,50.15
2022-09-04T09:33:49.571Z,49.66
2022-09-04T09:36:21.657Z,49.32
2022-09-04T09:38:41.754Z,49.35
2022-09-04T09:40:56.084Z,48.85
2022-09-04T09:43:20.750Z,48.62
2022-09-04T09:45:46.092Z,48.59
2022-09-04T09:48:15.949Z,48.41
2022-09-04T09:50:27.927Z,47.62
2022-09-04T09:53:07.027Z,47.43
2022-09-04T09:55:29.265Z,47.11
2022-09-04T09:57:46.881Z,47.25
2022-09-04T10:00:10.594Z,46.73
2022-09-04T10:02:38.196Z,46.26
2022-09-04T10:05:11.138Z,46.11
2022-09-04T10:07:19.763Z,45.82
2022-09-04T10:09:27.955Z,45.52
2022-09-04T10:11:36.703Z,45.13
2022-09-04T10:14:08.188Z,44.68
2022-09-04T10:16:24.126Z,44.99
2022-09-04T10:18:37.785Z,45.06
2022-09-04T10:21:20.890Z,44.73
2022-09-04T10:23:47.273Z,44.10
2022-09-04T10:26:09.926Z,43.50
2022-09-04T10:28:51.031Z,43.93
2022-09-04T10:31:02.625Z,44.02
2022-09-04T10:33:34.019Z,42.51
2022-09-04T10:35:54.622Z,43.18
2022-09-04T10:38:15.887Z,42.57
2022-09-04T10:40:43.379Z,42.27
2022-09-04T10:43:13.979Z,41.05
2022-09-04T10:45:35.872Z,41.43
2022-09-04T10:48:02.232Z,41.11
2022-09-04T10:50:31.078Z,40.70
2022-09-04T10:53:02.778Z,40.28
2022-09-04T10:55:22.837Z,40.67
2022-09-04T10:57:59.841Z,40.99
2022-09-04T11:00:01.588Z,40.99
2022-09-04T11:02:41.112Z,40.37
2022-09-04T11:05:20.385Z,40.17
2022-09-04T11:07:29.890Z,40.03
2022-09-04T11:09:53.175Z,39.92
2022-09-04T11:12:46.482Z,38.52
2022-09-04T11:15:09.392Z,39.08
2022-09-04T11:17:52.981Z,39.22
2022-09-04T11:20:34.042Z,37.92
2022-09-04T11:22:47.755Z,38.78
2022-09-04T11:25:10.851Z,37.95
2022-09-04T11:28:10.659Z,37.94
2022-09-04T11:30:31.824Z,37.45
2022-09-04T11:32:39.461Z,38.17
2022-09-04T11:35:28.578Z,37.66
2022-09-04T11:37:45.273Z,37.57
2022-09-04T11:39:52.735Z,37.56
2022-09-04T11:42:20.430Z,37.13
2022-09-04T11:44:37.322Z,36.44
2022-09-04T11:47:16.990Z,36.62
2022-09-04T11:49:49.582Z,36.34
2022-09-04T11:52:14.882Z,36.54
2022-09-04T11:54:29.209Z,35.69
2022-09-04T11:56:50.869Z,36.21
2022-09-04T11:59:04.999Z,35.89
2022-09-04T12:01:18.600Z,35.36
2022-09-04T12:03:49.575Z,34.98
2022-09-04T12:06:15.364Z,34.83
2022-09-04T12:08:25.774Z,35.04
2022-09-04T12:10:52.460Z,34.54
2022-09-04T12:13:14.558Z,34.99
2022-09-04T12:15:46.734Z,35.36
2022-09-04T12:18:08.635Z,34.70
2022-09-04T12:20:28.415Z,34.77
2022-09-04T12:23:04.550Z,34.31
2022-09-04T12:25:43.793Z,34.29
2022-09-04T12:28:01.301Z,34.58
2022-09-04T12:30:14.392Z,34.35
2022-09-04T12:32:37.862Z,34.45
2022-09-04T12:34:56.516Z,34.21
2022-09-04T12:37:22.133Z,33.87
2022-09-04T12:39:43.033Z,33.91
2022-09-04T12:42:11.055Z,33.91
2022-09-04T12:44:38.049Z,33.73
2022-09-04T12:46:55.853Z,33.78
2022-09-04T12:49:28.672Z,33.99
2022-09-04T12:52:00.426Z,33.86
2022-09-04T12:54:45.355Z,33.86
2022-09-04T12:56:57.149Z,33.90
2022-09-04T12:59:32.527Z,33.84
2022-09-04T13:02:16.863Z,33.70
2022-09-04T13:04:31.595Z,33.79
2022-09-04T13:07:15.971Z,33.88
2022-09-04T13:09:35.154Z,33.92
2022-09-04T13:12:13.746Z,34.18
2022-09-04T13:14:49.533Z,34.11
2022-09-04T13:17:06.301Z,34.04
2022-09-04T13:19:50.710Z,34.29
2022-09-04T13:22:08.851Z,33.57
2022-09-04T13:24:36.457Z,34.05
2022-09-04T13:26:55.325Z,34.20
2022-09-04T13:29:16.994Z,33.34
2022-09-04T13:31:33.545Z,33.85
2022-09-04T13:34:04.320Z,33.68
2022-09-04T13:36:16.595Z,33.83
2022-09-04T13:38:36.072Z,33.56
2022-09-04T13:41:38.671Z,33.44
2022-09-04T13:44:18.645Z,33.45
2022-09-04T13:46:35.588Z,33.41
2022-09-04T13:48:52.065Z,33.31
2022-09-04T13:51:01.818Z,33.17
2022-09-04T13:53:34.719Z,32.99
2022-09-04T13:55:55.550Z,33.21
2022-09-04T13:58:21.367Z,32.46
2022-09-04T14:00:28.611Z,32.79
2022-09-04T14:02:35.072Z,32.50
2022-09-04T14:04:52.800Z,31.92
2022-09-04T14:07:10.823Z,32.09
2022-09-04T14:09:15.300Z,32.39
2022-09-04T14:11:25.508Z,32.21
2022-09-04T14:13:44.754Z,32.65
2022-09-04T14:16:06.812Z,32.45
2022-09-04T14:18:29.087Z,32.72
2022-09-04T14:21:01.363Z,32.60
2022-09-04T14:23:12.528Z,32.83
2022-09-04T14:25:15.862Z,32.73
2022-09-04T14:27:31.580Z,32.20
2022-09-04T14:30:06.123Z,32.29
2022-09-04T14:32:20.398Z,32.53
2022-09-04T14:34:35.889Z,32.38
2022-09-04T14:36:40.132Z,32.61
2022-09-04T14:39:06.649Z,32.28
2022-09-04T14:41:34.068Z,32.38
2022-09-04T14:44:07.542Z,32.51
2022-09-04T14:46:31.794Z,32.82
2022-09-04T14:48:40.707Z,32.97
2022-09-04T14:50:52.092Z,32.93
2022-09-04T14:53:06.519Z,32.75
2022-09-04T14:55:16.261Z,33.01
2022-09-04T14:57:29.164Z,33.09
2022-09-04T14:59:45.169Z,32.96
2022-09-04T15:02:02.946Z,33.01
2022-09-04T15:04:18.906Z,32.61
2022-09-04T15:06:30.231Z,32.87
2022-09-04T15:08:40.535Z,33.17
2022-09-04T15:10:53.759Z,32.92
2022-09-04T15:13:30.579Z,33.27
2022-09-04T15:15:39.604Z,33.06
2022-09-04T15:17:54.699Z,32.98
2022-09-04T15:19:59.879Z,33.34
2022-09-04T15:22:26.989Z,33.14
2022-09-04T15:24:43.750Z,33.51
2022-09-04T15:26:55.797Z,32.99
2022-09-04T15:29:27.401Z,33.06
2022-09-04T15:31:33.680Z,33.49
2022-09-04T15:33:42.778Z,32.99
2022-09-04T15:35:56.683Z,33.38
2022-09-04T15:38:30.374Z,33.42
2022-09-04T15:40:38.495Z,33.68
2022-09-04T15:42:49.969Z,33.42
2022-09-04T15:44:51.812Z,33.66
2022-09-04T15:47:23.247Z,33.66
2022-09-04T15:49:53.743Z,33.75
2022-09-04T15:52:03.288Z,33.44
2022-09-04T15:54:10.949Z,33.97
2022-09-04T15:56:25.185Z,33.86
2022-09-04T15:58:33.573Z,34.17
2022-09-04T16:01:00.065Z,33.74
2022-09-04T16:03:22.307Z,33.74
2022-09-04T16:05:36.036Z,34.19
2022-09-04T16:07:46.571Z,33.97
2022-09-04T16:10:01.190Z,34.46
2022-09-04T16:12:20.690Z,34.14
2022-09-04T16:14:45.250Z,34.68
2022-09-04T16:16:53.052Z,34.43
2022-09-04T16:19:05.058Z,34.89
2022-09-04T16:21:21.290Z,34.77
2022-09-04T16:23:38.328Z,35.20
2022-09-04T16:25:51.718Z,35.00
2022-09-04T16:28:03.926Z,35.24
2022-09-04T16:30:09.090Z,35.75
2022-09-04T16:32:18.333Z,35.81
2022-09-04T16:34:39.659Z,35.81
2022-09-04T16:36:46.108Z,36.18
2022-09-04T16:39:00.573Z,35.96
2022-09-04T16:41:11.859Z,36.01
2022-09-04T16:43:33.076Z,35.91
2022-09-04T16:46:10.121Z,36.23
2022-09-04T16:48:34.617Z,36.26
2022-09-04T16:50:51.899Z,35.80
2022-09-04T16:53:12.634Z,35.95
2022-09-04T16:55:27.152Z,35.94
2022-09-04T16:57:54.619Z,36.11
2022-09-04T17:00:09.579Z,36.23
2022-09-04T17:02:24.120Z,36.11
2022-09-04T17:05:03.957Z,36.56
2022-09-04T17:07:08.865Z,36.09
2022-09-04T17:09:42.248Z,36.48
2022-09-04T17:11:55.328Z,36.31
2022-09-04T17:14:15.315Z,36.44
2022-09-04T17:16:22.313Z,36.44
2022-09-04T17:18:28.353Z,36.61
2022-09-04T17:21:17.514Z,36.79
2022-09-04T17:28:59.006Z,36.71
2022-09-04T17:29:09.208Z,36.64
2022-09-04T17:29:09.931Z,36.70
2022-09-04T17:30:46.981Z,36.97
2022-09-04T17:38:51.035Z,37.07
2022-09-04T17:40:46.472Z,36.85
2022-09-04T17:40:48.436Z,37.28
2022-09-04T17:41:39.957Z,37.08
2022-09-04T17:44:03.532Z,37.39
2022-09-04T17:46:20.798Z,37.34
2022-09-04T17:48:37.900Z,37.51
2022-09-04T17:50:52.495Z,37.59
2022-09-04T17:53:08.150Z,37.86
2022-09-04T17:55:16.673Z,37.72
2022-09-04T17:57:53.491Z,38.02
2022-09-04T18:00:06.750Z,37.54
2022-09-04T18:02:28.665Z,38.04
2022-09-04T18:04:34.904Z,37.93
2022-09-04T18:06:45.491Z,37.94
2022-09-04T18:08:57.294Z,38.15
2022-09-04T18:11:08.042Z,37.89
2022-09-04T18:13:41.867Z,37.90
2022-09-04T18:16:18.638Z,37.94
2022-09-04T18:18:43.868Z,38.08
2022-09-04T18:21:26.867Z,38.24
2022-09-04T18:23:51.516Z,38.48
2022-09-04T18:26:40.615Z,38.26
2022-09-04T18:28:55.427Z,38.38
2022-09-04T18:37:06.172Z,38.28
2022-09-04T18:37:15.980Z,38.61
2022-09-04T18:37:25.656Z,38.47
2022-09-04T18:38:51.922Z,38.60
2022-09-04T18:43:34.598Z,38.75
2022-09-04T18:50:25.371Z,38.68
2022-09-04T18:50:32.731Z,38.90
2022-09-04T18:50:50.179Z,38.71
2022-09-04T18:51:38.453Z,38.96
2022-09-04T18:53:50.107Z,38.79
2022-09-04T18:56:06.206Z,38.89
2022-09-04T18:58:23.691Z,39.21
2022-09-04T19:00:48.641Z,39.00
2022-09-04T19:03:04.640Z,39.35
2022-09-04T19:05:14.070Z,39.75
2022-09-04T19:07:29.992Z,39.91
2022-09-04T19:09:55.662Z,39.63
2022-09-04T19:12:08.591Z,39.59
2022-09-04T19:14:15.515Z,39.86
2022-09-04T19:16:31.782Z,40.09
2022-09-04T19:21:14.373Z,39.79
2022-09-04T19:23:32.485Z,40.19
2022-09-04T19:25:40.463Z,40.41
2022-09-04T19:28:06.845Z,40.13
2022-09-04T19:30:25.274Z,40.67
2022-09-04T19:32:39.743Z,40.64
2022-09-04T19:34:47.344Z,40.77
2022-09-04T19:36:59.100Z,40.44
2022-09-04T19:45:54.732Z,40.42
2022-09-04T19:45:59.170Z,40.51
2022-09-04T19:46:16.320Z,40.62
2022-09-04T19:47:31.400Z,40.84
2022-09-04T19:52:23.711Z,40.87
2022-09-04T19:53:31.034Z,41.62
2022-09-04T19:54:44.796Z,41.30
2022-09-04T19:57:33.315Z,41.53
2022-09-04T19:59:45.538Z,41.44
2022-09-04T20:01:52.146Z,41.12
2022-09-04T20:04:12.529Z,41.54
2022-09-04T20:06:21.470Z,41.52
2022-09-04T20:08:31.171Z,41.38
2022-09-04T20:10:45.363Z,41.64
2022-09-04T20:12:53.466Z,41.80
2022-09-04T20:15:12.655Z,42.17
2022-09-04T20:17:39.053Z,42.00
2022-09-04T20:19:51.596Z,42.68
2022-09-04T20:22:05.643Z,42.39
2022-09-04T20:24:15.971Z,42.45
2022-09-04T20:26:30.968Z,42.39
2022-09-04T20:28:54.640Z,42.55
2022-09-04T20:31:35.505Z,42.75
2022-09-04T20:33:40.701Z,42.60
2022-09-04T20:35:59.921Z,42.63
2022-09-04T20:38:23.317Z,42.90
2022-09-04T20:40:35.205Z,42.70
2022-09-04T20:42:44.530Z,42.92
2022-09-04T20:52:37.614Z,43.04
2022-09-04T20:52:45.422Z,43.28
2022-09-04T20:52:49.564Z,43.80
2022-09-04T20:53:05.371Z,43.32
2022-09-04T20:54:56.708Z,43.77
2022-09-04T21:00:53.365Z,43.53
2022-09-04T21:03:13.906Z,43.84
2022-09-04T21:03:17.385Z,43.67
2022-09-04T21:05:02.044Z,44.19
2022-09-04T21:07:33.200Z,44.25
2022-09-04T21:10:09.567Z,44.28
2022-09-04T21:12:42.615Z,44.12
2022-09-04T21:14:50.924Z,44.14
2022-09-04T21:17:33.858Z,44.58
2022-09-04T21:19:58.677Z,44.39
2022-09-04T21:22:32.670Z,44.65
2022-09-04T21:24:40.915Z,44.72
2022-09-04T21:27:00.312Z,44.67
2022-09-04T21:29:32.146Z,44.76
2022-09-04T21:32:11.293Z,45.06
2022-09-04T21:34:44.478Z,44.95
2022-09-04T21:36:59.482Z,44.98
2022-09-04T21:39:28.672Z,45.25
2022-09-04T21:41:45.512Z,45.24
2022-09-04T21:44:21.567Z,45.69
2022-09-04T21:46:35.606Z,45.40
2022-09-04T21:48:57.414Z,45.71
2022-09-04T21:51:28.387Z,45.86
2022-09-04T21:53:55.172Z,46.12
2022-09-04T22:00:16.096Z,46.06
2022-09-04T22:02:42.627Z,45.94
2022-09-04T22:02:44.603Z,46.25
2022-09-04T22:04:44.433Z,46.68
2022-09-04T22:13:04.504Z,46.60
2022-09-04T22:13:31.879Z,46.41
2022-09-04T22:13:40.088Z,46.58
2022-09-04T22:15:02.772Z,47.22
2022-09-04T22:17:14.980Z,47.06
2022-09-04T22:19:19.176Z,46.98
2022-09-04T22:21:44.302Z,47.10
2022-09-04T22:24:00.868Z,47.02
2022-09-04T22:26:24.641Z,47.64
2022-09-04T22:28:52.063Z,47.69
2022-09-04T22:31:29.198Z,48.11
2022-09-04T22:34:15.650Z,47.93
2022-09-04T22:36:40.735Z,47.68
2022-09-04T22:38:53.609Z,47.93
2022-09-04T22:41:24.659Z,47.93
2022-09-04T22:43:28.636Z,47.73
2022-09-04T22:46:03.213Z,48.10
2022-09-04T22:48:35.627Z,48.17
2022-09-04T22:50:54.516Z,48.13
2022-09-04T22:53:18.933Z,47.82
2022-09-04T22:56:23.497Z,48.00
2022-09-04T22:58:50.825Z,47.85
2022-09-04T23:01:18.518Z,48.33
2022-09-04T23:03:49.841Z,47.77
2022-09-04T23:12:37.589Z,48.16
2022-09-04T23:13:42.211Z,48.42
2022-09-04T23:13:47.725Z,48.35
2022-09-04T23:15:08.813Z,48.93
2022-09-04T23:17:42.024Z,48.50
2022-09-04T23:26:30.969Z,49.08
2022-09-04T23:26:47.716Z,49.24
2022-09-04T23:26:54.236Z,49.30
2022-09-04T23:28:08.719Z,49.62
2022-09-04T23:30:31.408Z,48.91
2022-09-04T23:33:10.364Z,49.44
2022-09-04T23:35:24.804Z,49.33
2022-09-04T23:38:20.852Z,49.78
2022-09-04T23:40:53.563Z,49.65
2022-09-04T23:43:13.783Z,49.82
2022-09-04T23:45:27.332Z,49.54
2022-09-04T23:47:47.823Z,49.73
2022-09-04T23:50:02.053Z,50.15
2022-09-04T23:52:48.727Z,50.43
2022-09-04T23:55:07.901Z,50.12
2022-09-04T23:57:26.520Z,49.88
2022-09-04T23:59:47.911Z,50.36
